sensor_id;sensor_type;location;lat;lon;timestamp;pressure;altitude;pressure_sealevel;temperature;humidity
71476;BME280;59286;59.274;17.974;2023-04-20T00:00:17;102997.69;;;3.63;59.06
71476;BME280;59286;59.274;17.974;2023-04-20T00:02:44;102981.53;;;3.61;59.01
71476;BME280;59286;59.274;17.974;2023-04-20T00:05:10;102975.91;;;3.57;58.80
71476;BME280;59286;59.274;17.974;2023-04-20T00:07:36;102960.50;;;3.49;58.88
71476;BME280;59286;59.274;17.974;2023-04-20T00:10:02;102986.28;;;3.57;59.54
71476;BME280;59286;59.274;17.974;2023-04-20T00:12:28;102973.22;;;3.44;59.83
71476;BME280;59286;59.274;17.974;2023-04-20T00:14:54;102994.81;;;3.51;60.17
71476;BME280;59286;59.274;17.974;2023-04-20T00:17:20;102981.56;;;3.40;59.42
71476;BME280;59286;59.274;17.974;2023-04-20T00:19:45;102985.09;;;3.32;60.25
71476;BME280;59286;59.274;17.974;2023-04-20T00:22:11;102995.44;;;3.32;60.41
71476;BME280;59286;59.274;17.974;2023-04-20T00:24:37;102976.59;;;3.17;61.26
71476;BME280;59286;59.274;17.974;2023-04-20T00:27:02;102975.72;;;3.10;61.67
71476;BME280;59286;59.274;17.974;2023-04-20T00:29:28;102974.75;;;3.11;61.55
71476;BME280;59286;59.274;17.974;2023-04-20T00:31:53;102976.97;;;3.14;61.63
71476;BME280;59286;59.274;17.974;2023-04-20T00:34:19;102978.50;;;3.09;61.73
71476;BME280;59286;59.274;17.974;2023-04-20T00:36:44;102957.00;;;2.87;62.52
71476;BME280;59286;59.274;17.974;2023-04-20T00:39:10;102977.59;;;2.95;62.43
71476;BME280;59286;59.274;17.974;2023-04-20T00:41:35;102971.00;;;2.92;62.66
71476;BME280;59286;59.274;17.974;2023-04-20T00:44:00;102974.75;;;2.90;62.92
71476;BME280;59286;59.274;17.974;2023-04-20T00:46:26;102966.97;;;2.69;63.77
71476;BME280;59286;59.274;17.974;2023-04-20T00:48:52;102957.22;;;2.50;64.39
71476;BME280;59286;59.274;17.974;2023-04-20T00:51:19;102977.94;;;2.50;64.18
71476;BME280;59286;59.274;17.974;2023-04-20T00:53:45;102969.53;;;2.48;64.33
71476;BME280;59286;59.274;17.974;2023-04-20T00:56:12;102965.00;;;2.35;64.93
71476;BME280;59286;59.274;17.974;2023-04-20T00:58:37;102951.22;;;2.14;65.76
71476;BME280;59286;59.274;17.974;2023-04-20T01:01:04;102960.41;;;2.02;66.00
71476;BME280;59286;59.274;17.974;2023-04-20T01:03:30;102962.09;;;1.94;65.98
71476;BME280;59286;59.274;17.974;2023-04-20T01:05:55;102961.13;;;1.95;66.22
71476;BME280;59286;59.274;17.974;2023-04-20T01:08:25;102970.13;;;1.99;65.93
71476;BME280;59286;59.274;17.974;2023-04-20T01:10:50;102955.53;;;1.92;65.99
71476;BME280;59286;59.274;17.974;2023-04-20T01:13:16;102959.78;;;1.99;65.59
71476;BME280;59286;59.274;17.974;2023-04-20T01:15:41;102961.41;;;2.01;65.24
71476;BME280;59286;59.274;17.974;2023-04-20T01:18:06;102950.16;;;1.93;66.39
71476;BME280;59286;59.274;17.974;2023-04-20T01:20:32;102946.06;;;1.84;66.48
71476;BME280;59286;59.274;17.974;2023-04-20T01:22:57;102953.53;;;1.79;66.67
71476;BME280;59286;59.274;17.974;2023-04-20T01:25:23;102966.56;;;1.71;67.37
71476;BME280;59286;59.274;17.974;2023-04-20T01:27:48;102950.25;;;1.56;67.62
71476;BME280;59286;59.274;17.974;2023-04-20T01:30:14;102956.28;;;1.49;67.98
71476;BME280;59286;59.274;17.974;2023-04-20T01:32:40;102966.19;;;1.45;67.80
71476;BME280;59286;59.274;17.974;2023-04-20T01:35:06;102968.59;;;1.47;67.83
71476;BME280;59286;59.274;17.974;2023-04-20T01:37:32;102935.56;;;1.20;68.31
71476;BME280;59286;59.274;17.974;2023-04-20T01:39:57;102926.84;;;1.21;68.18
71476;BME280;59286;59.274;17.974;2023-04-20T01:42:23;102961.47;;;1.49;68.15
71476;BME280;59286;59.274;17.974;2023-04-20T01:44:48;102953.59;;;1.57;68.13
71476;BME280;59286;59.274;17.974;2023-04-20T01:47:14;102955.31;;;1.64;67.02
71476;BME280;59286;59.274;17.974;2023-04-20T01:49:39;102948.09;;;1.60;67.90
71476;BME280;59286;59.274;17.974;2023-04-20T01:52:05;102928.56;;;1.57;67.89
71476;BME280;59286;59.274;17.974;2023-04-20T01:54:30;102946.53;;;1.73;67.25
71476;BME280;59286;59.274;17.974;2023-04-20T01:56:56;102945.25;;;1.69;67.58
71476;BME280;59286;59.274;17.974;2023-04-20T01:59:22;102940.16;;;1.61;67.44
71476;BME280;59286;59.274;17.974;2023-04-20T02:01:47;102944.09;;;1.57;68.22
71476;BME280;59286;59.274;17.974;2023-04-20T02:04:12;102950.69;;;1.45;68.32
71476;BME280;59286;59.274;17.974;2023-04-20T02:06:37;102934.63;;;1.35;68.69
71476;BME280;59286;59.274;17.974;2023-04-20T02:09:03;102938.19;;;1.34;68.98
71476;BME280;59286;59.274;17.974;2023-04-20T02:11:28;102940.03;;;1.40;68.37
71476;BME280;59286;59.274;17.974;2023-04-20T02:13:54;102927.69;;;1.36;68.47
71476;BME280;59286;59.274;17.974;2023-04-20T02:16:19;102929.72;;;1.40;68.07
71476;BME280;59286;59.274;17.974;2023-04-20T02:18:45;102937.19;;;1.35;68.54
71476;BME280;59286;59.274;17.974;2023-04-20T02:21:11;102934.97;;;1.32;68.92
71476;BME280;59286;59.274;17.974;2023-04-20T02:23:36;102932.00;;;1.21;69.45
71476;BME280;59286;59.274;17.974;2023-04-20T02:26:02;102915.44;;;1.15;68.90
71476;BME280;59286;59.274;17.974;2023-04-20T02:28:27;102931.56;;;1.17;69.82
71476;BME280;59286;59.274;17.974;2023-04-20T02:30:53;102927.81;;;0.97;70.61
71476;BME280;59286;59.274;17.974;2023-04-20T02:33:18;102922.16;;;0.79;71.30
71476;BME280;59286;59.274;17.974;2023-04-20T02:35:46;102932.22;;;0.74;71.42
71476;BME280;59286;59.274;17.974;2023-04-20T02:38:11;102923.84;;;0.72;71.13
71476;BME280;59286;59.274;17.974;2023-04-20T02:40:36;102929.63;;;0.74;71.37
71476;BME280;59286;59.274;17.974;2023-04-20T02:43:02;102932.03;;;0.75;70.40
71476;BME280;59286;59.274;17.974;2023-04-20T02:45:27;102927.50;;;0.77;70.98
71476;BME280;59286;59.274;17.974;2023-04-20T02:47:52;102930.44;;;0.74;70.60
71476;BME280;59286;59.274;17.974;2023-04-20T02:50:18;102923.34;;;0.76;70.76
71476;BME280;59286;59.274;17.974;2023-04-20T02:52:43;102937.31;;;0.82;71.01
71476;BME280;59286;59.274;17.974;2023-04-20T02:55:08;102926.53;;;0.78;70.92
71476;BME280;59286;59.274;17.974;2023-04-20T02:57:34;102927.97;;;0.81;71.53
71476;BME280;59286;59.274;17.974;2023-04-20T02:59:59;102926.69;;;0.77;71.38
71476;BME280;59286;59.274;17.974;2023-04-20T03:02:25;102898.44;;;0.61;71.58
71476;BME280;59286;59.274;17.974;2023-04-20T03:04:50;102904.78;;;0.73;71.59
71476;BME280;59286;59.274;17.974;2023-04-20T03:07:15;102913.91;;;0.83;71.22
71476;BME280;59286;59.274;17.974;2023-04-20T03:09:42;102923.16;;;0.78;71.72
71476;BME280;59286;59.274;17.974;2023-04-20T03:12:07;102921.94;;;0.66;71.40
71476;BME280;59286;59.274;17.974;2023-04-20T03:14:32;102918.91;;;0.62;71.55
71476;BME280;59286;59.274;17.974;2023-04-20T03:16:58;102922.75;;;0.66;71.72
71476;BME280;59286;59.274;17.974;2023-04-20T03:19:23;102893.72;;;0.42;72.15
71476;BME280;59286;59.274;17.974;2023-04-20T03:21:48;102916.53;;;0.53;72.40
71476;BME280;59286;59.274;17.974;2023-04-20T03:24:16;102904.38;;;0.39;72.69
71476;BME280;59286;59.274;17.974;2023-04-20T03:26:41;102919.13;;;0.53;72.48
71476;BME280;59286;59.274;17.974;2023-04-20T03:29:07;102914.13;;;0.51;72.40
71476;BME280;59286;59.274;17.974;2023-04-20T03:31:32;102922.97;;;0.57;72.31
71476;BME280;59286;59.274;17.974;2023-04-20T03:33:57;102906.56;;;0.50;72.59
71476;BME280;59286;59.274;17.974;2023-04-20T03:36:23;102920.22;;;0.58;72.59
71476;BME280;59286;59.274;17.974;2023-04-20T03:38:48;102914.13;;;0.51;72.54
71476;BME280;59286;59.274;17.974;2023-04-20T03:41:13;102925.59;;;0.49;73.09
71476;BME280;59286;59.274;17.974;2023-04-20T03:43:39;102918.69;;;0.41;72.87
71476;BME280;59286;59.274;17.974;2023-04-20T03:46:06;102910.56;;;0.30;73.47
71476;BME280;59286;59.274;17.974;2023-04-20T03:48:31;102919.91;;;0.23;73.45
71476;BME280;59286;59.274;17.974;2023-04-20T03:50:57;102918.22;;;0.38;72.75
71476;BME280;59286;59.274;17.974;2023-04-20T03:53:23;102915.63;;;0.46;72.81
71476;BME280;59286;59.274;17.974;2023-04-20T03:55:48;102913.78;;;0.54;72.76
71476;BME280;59286;59.274;17.974;2023-04-20T03:58:13;102911.84;;;0.56;72.58
71476;BME280;59286;59.274;17.974;2023-04-20T04:00:39;102910.34;;;0.62;73.31
71476;BME280;59286;59.274;17.974;2023-04-20T04:03:05;102918.50;;;0.73;72.88
71476;BME280;59286;59.274;17.974;2023-04-20T04:05:30;102923.19;;;0.92;73.21
71476;BME280;59286;59.274;17.974;2023-04-20T04:07:56;102931.88;;;1.14;72.31
71476;BME280;59286;59.274;17.974;2023-04-20T04:10:21;102924.06;;;1.22;72.54
71476;BME280;59286;59.274;17.974;2023-04-20T04:12:46;102931.84;;;1.37;71.42
71476;BME280;59286;59.274;17.974;2023-04-20T04:15:12;102921.19;;;1.40;70.87
71476;BME280;59286;59.274;17.974;2023-04-20T04:17:37;102924.66;;;1.47;70.99
71476;BME280;59286;59.274;17.974;2023-04-20T04:20:04;102923.78;;;1.54;70.49
71476;BME280;59286;59.274;17.974;2023-04-20T04:22:32;102921.81;;;1.56;70.46
71476;BME280;59286;59.274;17.974;2023-04-20T04:24:57;102921.09;;;1.62;70.20
71476;BME280;59286;59.274;17.974;2023-04-20T04:27:23;102912.19;;;1.65;70.69
71476;BME280;59286;59.274;17.974;2023-04-20T04:29:48;102903.78;;;1.77;70.64
71476;BME280;59286;59.274;17.974;2023-04-20T04:32:17;102917.44;;;2.01;70.13
71476;BME280;59286;59.274;17.974;2023-04-20T04:34:43;102927.47;;;2.25;69.47
71476;BME280;59286;59.274;17.974;2023-04-20T04:37:09;102918.50;;;2.42;69.04
71476;BME280;59286;59.274;17.974;2023-04-20T04:39:35;102917.78;;;2.69;68.76
71476;BME280;59286;59.274;17.974;2023-04-20T04:42:00;102917.41;;;2.93;68.00
71476;BME280;59286;59.274;17.974;2023-04-20T04:44:27;102924.41;;;3.20;67.40
71476;BME280;59286;59.274;17.974;2023-04-20T04:46:53;102923.03;;;3.52;66.67
71476;BME280;59286;59.274;17.974;2023-04-20T04:49:18;102931.19;;;3.83;65.53
71476;BME280;59286;59.274;17.974;2023-04-20T04:51:44;102927.53;;;4.12;64.42
71476;BME280;59286;59.274;17.974;2023-04-20T04:54:09;102934.44;;;4.45;63.11
71476;BME280;59286;59.274;17.974;2023-04-20T04:56:35;102915.06;;;4.61;61.93
71476;BME280;59286;59.274;17.974;2023-04-20T04:59:00;102924.09;;;4.91;61.06
71476;BME280;59286;59.274;17.974;2023-04-20T05:01:25;102912.31;;;5.08;60.72
71476;BME280;59286;59.274;17.974;2023-04-20T05:03:51;102931.25;;;5.41;59.80
71476;BME280;59286;59.274;17.974;2023-04-20T05:06:16;102927.84;;;5.60;58.85
71476;BME280;59286;59.274;17.974;2023-04-20T05:08:41;102927.97;;;5.78;58.97
71476;BME280;59286;59.274;17.974;2023-04-20T05:11:07;102918.75;;;5.96;57.66
71476;BME280;59286;59.274;17.974;2023-04-20T05:13:32;102932.84;;;6.26;56.95
71476;BME280;59286;59.274;17.974;2023-04-20T05:15:57;102912.75;;;6.39;56.47
71476;BME280;59286;59.274;17.974;2023-04-20T05:18:23;102928.25;;;6.59;55.69
71476;BME280;59286;59.274;17.974;2023-04-20T05:20:48;102915.38;;;6.64;55.80
71476;BME280;59286;59.274;17.974;2023-04-20T05:23:13;102926.72;;;6.76;54.93
71476;BME280;59286;59.274;17.974;2023-04-20T05:25:39;102932.59;;;6.96;55.02
71476;BME280;59286;59.274;17.974;2023-04-20T05:28:05;102925.50;;;7.03;54.58
71476;BME280;59286;59.274;17.974;2023-04-20T05:30:30;102913.94;;;6.99;54.10
71476;BME280;59286;59.274;17.974;2023-04-20T05:32:55;102897.38;;;6.87;53.77
71476;BME280;59286;59.274;17.974;2023-04-20T05:35:21;102910.16;;;7.20;53.85
71476;BME280;59286;59.274;17.974;2023-04-20T05:37:46;102916.47;;;7.30;53.21
71476;BME280;59286;59.274;17.974;2023-04-20T05:40:12;102915.88;;;7.28;53.26
71476;BME280;59286;59.274;17.974;2023-04-20T05:42:37;102916.69;;;7.47;53.01
71476;BME280;59286;59.274;17.974;2023-04-20T05:45:03;102911.69;;;7.45;52.42
71476;BME280;59286;59.274;17.974;2023-04-20T05:47:29;102920.09;;;7.65;52.18
71476;BME280;59286;59.274;17.974;2023-04-20T05:49:54;102928.38;;;7.80;52.56
71476;BME280;59286;59.274;17.974;2023-04-20T05:52:19;102914.75;;;7.78;51.89
71476;BME280;59286;59.274;17.974;2023-04-20T05:54:45;102907.25;;;7.82;51.63
71476;BME280;59286;59.274;17.974;2023-04-20T05:57:10;102908.91;;;7.95;51.39
71476;BME280;59286;59.274;17.974;2023-04-20T05:59:36;102905.19;;;8.02;51.50
71476;BME280;59286;59.274;17.974;2023-04-20T06:02:01;102910.94;;;8.11;50.98
71476;BME280;59286;59.274;17.974;2023-04-20T06:04:26;102916.94;;;8.29;50.55
71476;BME280;59286;59.274;17.974;2023-04-20T06:06:52;102908.00;;;8.37;50.33
71476;BME280;59286;59.274;17.974;2023-04-20T06:09:17;102904.06;;;8.46;49.33
71476;BME280;59286;59.274;17.974;2023-04-20T06:11:43;102906.63;;;8.75;49.85
71476;BME280;59286;59.274;17.974;2023-04-20T06:14:08;102915.63;;;8.91;49.52
71476;BME280;59286;59.274;17.974;2023-04-20T06:16:36;102909.94;;;8.94;48.86
71476;BME280;59286;59.274;17.974;2023-04-20T06:19:01;102914.81;;;9.25;48.82
71476;BME280;59286;59.274;17.974;2023-04-20T06:21:27;102918.16;;;9.32;47.63
71476;BME280;59286;59.274;17.974;2023-04-20T06:23:52;102919.97;;;9.43;47.33
71476;BME280;59286;59.274;17.974;2023-04-20T06:26:17;102923.34;;;9.55;46.60
71476;BME280;59286;59.274;17.974;2023-04-20T06:28:43;102920.13;;;9.76;46.19
71476;BME280;59286;59.274;17.974;2023-04-20T06:31:09;102906.00;;;9.77;45.88
71476;BME280;59286;59.274;17.974;2023-04-20T06:33:34;102928.69;;;10.12;45.38
71476;BME280;59286;59.274;17.974;2023-04-20T06:36:00;102903.03;;;10.25;45.90
71476;BME280;59286;59.274;17.974;2023-04-20T06:38:25;102904.72;;;10.48;44.15
71476;BME280;59286;59.274;17.974;2023-04-20T06:40:51;102919.44;;;10.65;44.21
71476;BME280;59286;59.274;17.974;2023-04-20T06:43:16;102906.69;;;10.57;43.49
71476;BME280;59286;59.274;17.974;2023-04-20T06:45:41;102897.00;;;10.58;43.58
71476;BME280;59286;59.274;17.974;2023-04-20T06:48:07;102893.19;;;10.82;44.29
71476;BME280;59286;59.274;17.974;2023-04-20T06:50:32;102916.34;;;11.02;43.47
71476;BME280;59286;59.274;17.974;2023-04-20T06:52:58;102899.88;;;11.06;42.90
71476;BME280;59286;59.274;17.974;2023-04-20T06:55:23;102905.53;;;11.36;42.21
71476;BME280;59286;59.274;17.974;2023-04-20T06:57:48;102909.16;;;11.68;42.42
71476;BME280;59286;59.274;17.974;2023-04-20T07:00:14;102905.66;;;11.85;41.97
71476;BME280;59286;59.274;17.974;2023-04-20T07:02:45;102925.44;;;12.14;41.64
71476;BME280;59286;59.274;17.974;2023-04-20T07:05:10;102922.25;;;12.12;39.69
71476;BME280;59286;59.274;17.974;2023-04-20T07:07:36;102931.88;;;11.80;40.22
71476;BME280;59286;59.274;17.974;2023-04-20T07:10:02;102928.56;;;11.89;40.75
71476;BME280;59286;59.274;17.974;2023-04-20T07:12:27;102931.25;;;11.94;40.58
71476;BME280;59286;59.274;17.974;2023-04-20T07:14:53;102922.47;;;12.10;38.90
71476;BME280;59286;59.274;17.974;2023-04-20T07:17:19;102920.00;;;12.25;38.65
71476;BME280;59286;59.274;17.974;2023-04-20T07:19:44;102911.72;;;12.38;38.55
71476;BME280;59286;59.274;17.974;2023-04-20T07:22:09;102903.63;;;12.45;38.19
71476;BME280;59286;59.274;17.974;2023-04-20T07:24:35;102921.53;;;12.48;38.29
71476;BME280;59286;59.274;17.974;2023-04-20T07:27:00;102924.28;;;12.58;38.90
71476;BME280;59286;59.274;17.974;2023-04-20T07:29:26;102925.38;;;12.62;38.38
71476;BME280;59286;59.274;17.974;2023-04-20T07:31:52;102915.44;;;12.74;37.58
71476;BME280;59286;59.274;17.974;2023-04-20T07:34:17;102920.56;;;12.91;38.09
71476;BME280;59286;59.274;17.974;2023-04-20T07:36:42;102923.59;;;13.04;37.06
71476;BME280;59286;59.274;17.974;2023-04-20T07:39:08;102918.34;;;13.04;35.85
71476;BME280;59286;59.274;17.974;2023-04-20T07:41:33;102921.69;;;13.00;35.73
71476;BME280;59286;59.274;17.974;2023-04-20T07:43:59;102915.81;;;13.19;37.06
71476;BME280;59286;59.274;17.974;2023-04-20T07:46:25;102913.25;;;13.29;35.72
71476;BME280;59286;59.274;17.974;2023-04-20T07:48:52;102886.31;;;13.22;35.85
71476;BME280;59286;59.274;17.974;2023-04-20T07:51:17;102915.41;;;13.42;35.92
71476;BME280;59286;59.274;17.974;2023-04-20T07:53:43;102892.75;;;13.41;36.25
71476;BME280;59286;59.274;17.974;2023-04-20T07:56:08;102903.34;;;13.56;35.78
71476;BME280;59286;59.274;17.974;2023-04-20T07:58:33;102900.97;;;13.50;35.11
71476;BME280;59286;59.274;17.974;2023-04-20T08:01:02;102909.69;;;13.66;35.76
71476;BME280;59286;59.274;17.974;2023-04-20T08:03:28;102899.22;;;13.76;35.32
71476;BME280;59286;59.274;17.974;2023-04-20T08:05:53;102915.56;;;13.88;35.32
71476;BME280;59286;59.274;17.974;2023-04-20T08:08:19;102893.41;;;13.79;35.69
71476;BME280;59286;59.274;17.974;2023-04-20T08:10:44;102904.22;;;13.72;34.23
71476;BME280;59286;59.274;17.974;2023-04-20T08:13:10;102906.50;;;13.53;35.72
71476;BME280;59286;59.274;17.974;2023-04-20T08:15:36;102907.59;;;13.68;34.98
71476;BME280;59286;59.274;17.974;2023-04-20T08:18:01;102915.56;;;13.83;34.93
71476;BME280;59286;59.274;17.974;2023-04-20T08:20:27;102913.19;;;13.76;33.92
71476;BME280;59286;59.274;17.974;2023-04-20T08:22:52;102908.16;;;13.75;35.13
71476;BME280;59286;59.274;17.974;2023-04-20T08:25:17;102897.38;;;13.76;34.47
71476;BME280;59286;59.274;17.974;2023-04-20T08:27:43;102891.31;;;13.76;33.81
71476;BME280;59286;59.274;17.974;2023-04-20T08:30:08;102913.19;;;13.81;34.73
71476;BME280;59286;59.274;17.974;2023-04-20T08:32:34;102897.09;;;13.78;34.40
71476;BME280;59286;59.274;17.974;2023-04-20T08:35:00;102906.72;;;14.19;34.41
71476;BME280;59286;59.274;17.974;2023-04-20T08:37:25;102915.66;;;14.23;33.31
71476;BME280;59286;59.274;17.974;2023-04-20T08:39:51;102913.56;;;14.15;33.21
71476;BME280;59286;59.274;17.974;2023-04-20T08:42:16;102908.81;;;14.22;34.08
71476;BME280;59286;59.274;17.974;2023-04-20T08:44:42;102901.16;;;14.25;32.86
71476;BME280;59286;59.274;17.974;2023-04-20T08:47:08;102888.22;;;14.09;32.50
71476;BME280;59286;59.274;17.974;2023-04-20T08:49:36;102902.47;;;14.08;34.05
71476;BME280;59286;59.274;17.974;2023-04-20T08:52:03;102897.69;;;14.05;32.58
71476;BME280;59286;59.274;17.974;2023-04-20T08:54:28;102917.22;;;14.14;32.61
71476;BME280;59286;59.274;17.974;2023-04-20T08:56:54;102908.81;;;14.22;33.77
71476;BME280;59286;59.274;17.974;2023-04-20T08:59:19;102897.25;;;14.33;33.51
71476;BME280;59286;59.274;17.974;2023-04-20T09:01:44;102883.53;;;14.36;33.11
71476;BME280;59286;59.274;17.974;2023-04-20T09:04:15;102900.94;;;14.27;32.94
71476;BME280;59286;59.274;17.974;2023-04-20T09:06:51;102890.94;;;14.34;33.06
71476;BME280;59286;59.274;17.974;2023-04-20T09:09:18;102892.50;;;14.40;32.67
71476;BME280;59286;59.274;17.974;2023-04-20T09:11:46;102896.19;;;14.39;32.07
71476;BME280;59286;59.274;17.974;2023-04-20T09:14:13;102884.06;;;14.33;32.45
71476;BME280;59286;59.274;17.974;2023-04-20T09:16:49;102889.34;;;14.43;32.54
71476;BME280;59286;59.274;17.974;2023-04-20T09:19:21;102886.97;;;14.51;31.63
71476;BME280;59286;59.274;17.974;2023-04-20T09:21:48;102886.41;;;14.54;32.78
71476;BME280;59286;59.274;17.974;2023-04-20T09:24:14;102882.22;;;14.48;32.61
71476;BME280;59286;59.274;17.974;2023-04-20T09:26:40;102880.13;;;14.50;32.69
71476;BME280;59286;59.274;17.974;2023-04-20T09:29:15;102882.72;;;14.45;31.15
71476;BME280;59286;59.274;17.974;2023-04-20T09:31:41;102857.16;;;14.41;33.39
71476;BME280;59286;59.274;17.974;2023-04-20T09:34:06;102850.28;;;14.50;33.33
71476;BME280;59286;59.274;17.974;2023-04-20T09:36:42;102880.38;;;14.69;33.75
71476;BME280;59286;59.274;17.974;2023-04-20T09:39:18;102875.06;;;14.79;31.93
71476;BME280;59286;59.274;17.974;2023-04-20T09:41:43;102874.03;;;14.60;31.05
71476;BME280;59286;59.274;17.974;2023-04-20T09:44:09;102870.06;;;14.57;31.88
71476;BME280;59286;59.274;17.974;2023-04-20T09:46:37;102867.16;;;14.64;30.82
71476;BME280;59286;59.274;17.974;2023-04-20T09:49:05;102871.13;;;14.77;32.63
71476;BME280;59286;59.274;17.974;2023-04-20T09:51:36;102855.28;;;14.62;31.33
71476;BME280;59286;59.274;17.974;2023-04-20T09:54:04;102861.84;;;14.79;31.36
71476;BME280;59286;59.274;17.974;2023-04-20T09:56:31;102857.63;;;14.83;30.92
71476;BME280;59286;59.274;17.974;2023-04-20T09:58:58;102859.75;;;14.81;31.66
71476;BME280;59286;59.274;17.974;2023-04-20T10:01:24;102855.53;;;14.75;31.59
71476;BME280;59286;59.274;17.974;2023-04-20T10:03:51;102847.38;;;14.51;30.91
71476;BME280;59286;59.274;17.974;2023-04-20T10:06:25;102846.00;;;14.79;32.38
71476;BME280;59286;59.274;17.974;2023-04-20T10:08:52;102851.25;;;14.99;32.23
71476;BME280;59286;59.274;17.974;2023-04-20T10:11:38;102854.41;;;15.11;31.95
71476;BME280;59286;59.274;17.974;2023-04-20T10:14:22;102855.44;;;15.15;30.69
71476;BME280;59286;59.274;17.974;2023-04-20T10:17:07;102842.50;;;15.14;30.91
71476;BME280;59286;59.274;17.974;2023-04-20T10:19:38;102845.16;;;15.09;31.41
71476;BME280;59286;59.274;17.974;2023-04-20T10:22:04;102837.81;;;14.91;31.08
71476;BME280;59286;59.274;17.974;2023-04-20T10:24:30;102825.41;;;14.81;31.31
71476;BME280;59286;59.274;17.974;2023-04-20T10:26:56;102819.63;;;14.84;34.41
71476;BME280;59286;59.274;17.974;2023-04-20T10:29:23;102835.69;;;15.03;31.03
71476;BME280;59286;59.274;17.974;2023-04-20T10:31:50;102835.13;;;15.06;31.94
71476;BME280;59286;59.274;17.974;2023-04-20T10:34:15;102823.75;;;15.15;31.09
71476;BME280;59286;59.274;17.974;2023-04-20T10:36:41;102827.91;;;15.31;31.63
71476;BME280;59286;59.274;17.974;2023-04-20T10:39:14;102816.28;;;15.32;30.50
71476;BME280;59286;59.274;17.974;2023-04-20T10:41:55;102810.44;;;15.35;30.45
71476;BME280;59286;59.274;17.974;2023-04-20T10:44:23;102808.34;;;15.27;30.07
71476;BME280;59286;59.274;17.974;2023-04-20T10:46:49;102815.81;;;15.15;30.03
71476;BME280;59286;59.274;17.974;2023-04-20T10:49:15;102813.63;;;15.32;32.04
71476;BME280;59286;59.274;17.974;2023-04-20T10:51:51;102815.69;;;15.40;29.84
71476;BME280;59286;59.274;17.974;2023-04-20T10:54:18;102812.34;;;15.20;29.71
71476;BME280;59286;59.274;17.974;2023-04-20T10:56:45;102796.28;;;15.11;30.17
71476;BME280;59286;59.274;17.974;2023-04-20T10:59:13;102803.41;;;15.16;30.38
71476;BME280;59286;59.274;17.974;2023-04-20T11:01:39;102796.78;;;15.18;29.58
71476;BME280;59286;59.274;17.974;2023-04-20T11:04:06;102796.75;;;15.28;31.15
71476;BME280;59286;59.274;17.974;2023-04-20T11:06:32;102794.53;;;15.40;30.47
71476;BME280;59286;59.274;17.974;2023-04-20T11:08:58;102792.13;;;15.54;29.91
71476;BME280;59286;59.274;17.974;2023-04-20T11:11:24;102786.03;;;15.59;31.07
71476;BME280;59286;59.274;17.974;2023-04-20T11:14:03;102786.03;;;15.59;29.51
71476;BME280;59286;59.274;17.974;2023-04-20T11:16:29;102757.53;;;15.50;27.83
71476;BME280;59286;59.274;17.974;2023-04-20T11:18:55;102778.25;;;15.72;29.77
71476;BME280;59286;59.274;17.974;2023-04-20T11:21:21;102773.00;;;15.67;30.37
71476;BME280;59286;59.274;17.974;2023-04-20T11:23:47;102763.34;;;15.52;30.57
71476;BME280;59286;59.274;17.974;2023-04-20T11:26:13;102771.13;;;15.73;31.01
71476;BME280;59286;59.274;17.974;2023-04-20T11:28:50;102760.94;;;15.90;31.40
71476;BME280;59286;59.274;17.974;2023-04-20T11:31:16;102763.56;;;15.95;28.46
71476;BME280;59286;59.274;17.974;2023-04-20T11:33:42;102757.84;;;15.83;29.35
71476;BME280;59286;59.274;17.974;2023-04-20T11:36:20;102753.31;;;15.88;29.17
71476;BME280;59286;59.274;17.974;2023-04-20T11:38:46;102748.81;;;15.89;28.09
71476;BME280;59286;59.274;17.974;2023-04-20T11:41:12;102757.50;;;15.89;30.68
71476;BME280;59286;59.274;17.974;2023-04-20T11:43:37;102754.50;;;16.01;30.08
71476;BME280;59286;59.274;17.974;2023-04-20T11:46:11;102748.34;;;16.10;31.18
71476;BME280;59286;59.274;17.974;2023-04-20T11:48:37;102726.91;;;16.12;31.26
71476;BME280;59286;59.274;17.974;2023-04-20T11:51:02;102727.34;;;16.19;30.63
71476;BME280;59286;59.274;17.974;2023-04-20T11:53:28;102737.50;;;16.35;29.81
71476;BME280;59286;59.274;17.974;2023-04-20T11:55:53;102734.91;;;16.30;30.25
71476;BME280;59286;59.274;17.974;2023-04-20T11:58:18;102740.13;;;16.40;29.82
71476;BME280;59286;59.274;17.974;2023-04-20T12:00:44;102722.41;;;16.36;29.93
71476;BME280;59286;59.274;17.974;2023-04-20T12:03:09;102709.13;;;16.17;29.24
71476;BME280;59286;59.274;17.974;2023-04-20T12:05:35;102715.22;;;16.18;30.70
71476;BME280;59286;59.274;17.974;2023-04-20T12:08:00;102711.38;;;16.00;28.79
71476;BME280;59286;59.274;17.974;2023-04-20T12:10:26;102734.84;;;16.12;28.68
71476;BME280;59286;59.274;17.974;2023-04-20T12:12:51;102723.19;;;16.13;29.16
71476;BME280;59286;59.274;17.974;2023-04-20T12:15:17;102705.44;;;16.13;30.00
71476;BME280;59286;59.274;17.974;2023-04-20T12:17:43;102717.78;;;16.23;30.50
71476;BME280;59286;59.274;17.974;2023-04-20T12:20:08;102716.16;;;16.27;29.72
71476;BME280;59286;59.274;17.974;2023-04-20T12:22:36;102698.38;;;16.09;30.57
71476;BME280;59286;59.274;17.974;2023-04-20T12:25:02;102691.59;;;15.98;29.65
71476;BME280;59286;59.274;17.974;2023-04-20T12:27:28;102680.94;;;16.03;30.38
71476;BME280;59286;59.274;17.974;2023-04-20T12:29:53;102689.19;;;16.25;29.45
71476;BME280;59286;59.274;17.974;2023-04-20T12:32:19;102679.84;;;16.09;28.48
71476;BME280;59286;59.274;17.974;2023-04-20T12:34:44;102703.00;;;16.22;28.40
71476;BME280;59286;59.274;17.974;2023-04-20T12:37:09;102696.97;;;16.16;28.03
71476;BME280;59286;59.274;17.974;2023-04-20T12:39:35;102680.34;;;15.82;27.26